createdAt,value
2022-08-22T00:02:24.691Z,101474.50
2022-08-22T00:02:55.722Z,101484.91
2022-08-22T00:04:56.077Z,101479.78
2022-08-22T00:07:31.462Z,101476.88
2022-08-22T00:10:24.929Z,101476.03
2022-08-22T00:12:54.907Z,101478.94
2022-08-22T00:15:42.956Z,101478.94
2022-08-22T00:18:13.168Z,101478.94
2022-08-22T00:20:45.176Z,101474.50
2022-08-22T00:23:17.489Z,101477.22
2022-08-22T00:25:43.819Z,101483.56
2022-08-22T00:28:17.625Z,101476.19
2022-08-22T00:30:51.699Z,101478.09
2022-08-22T00:33:21.977Z,101481.88
2022-08-22T00:35:51.345Z,101477.22
2022-08-22T00:38:23.847Z,101481.88
2022-08-22T00:40:53.571Z,101481.88
2022-08-22T00:43:34.955Z,101474.66
2022-08-22T00:46:20.269Z,101477.38
2022-08-22T00:48:46.582Z,101478.63
2022-08-22T00:51:19.099Z,101476.72
2022-08-22T00:53:57.157Z,101475.88
2022-08-22T00:56:42.488Z,101482.03
2022-08-22T00:59:51.349Z,101475.88
2022-08-22T01:02:32.694Z,101484.09
2022-08-22T01:05:17.485Z,101485.81
2022-08-22T01:07:43.817Z,101485.97
2022-08-22T01:10:27.438Z,101483.22
2022-08-22T01:13:05.843Z,101484.25
2022-08-22T01:15:34.987Z,101485.97
2022-08-22T01:18:17.091Z,101482.56
2022-08-22T01:20:58.149Z,101488.03
2022-08-22T01:23:53.935Z,101481.72
2022-08-22T01:26:20.260Z,101483.56
2022-08-22T01:28:46.776Z,101482.72
2022-08-22T01:31:13.162Z,101489.25
2022-08-22T01:33:49.190Z,101487.19
2022-08-22T01:36:34.137Z,101488.91
2022-08-22T01:39:02.451Z,101485.31
2022-08-22T01:41:28.827Z,101487.19
2022-08-22T01:44:07.579Z,101489.94
2022-08-22T01:47:03.568Z,101489.06
2022-08-22T01:49:37.502Z,101482.72
2022-08-22T01:52:19.620Z,101481.03
2022-08-22T01:54:55.428Z,101477.44
2022-08-22T01:57:26.203Z,101475.72
2022-08-22T01:59:54.146Z,101485.66
2022-08-22T02:02:26.018Z,101479.31
2022-08-22T02:05:01.324Z,101474.84
2022-08-22T02:07:48.346Z,101474.69
2022-08-22T02:10:21.118Z,101480.31
2022-08-22T02:13:01.300Z,101480.31
2022-08-22T02:15:44.028Z,101477.78
2022-08-22T02:18:14.365Z,101477.59
2022-08-22T02:20:40.731Z,101477.59
2022-08-22T02:23:25.962Z,101480.31
2022-08-22T02:26:01.454Z,101472.31
2022-08-22T02:28:57.111Z,101470.41
2022-08-22T02:31:33.543Z,101475.03
2022-08-22T02:34:02.242Z,101473.16
2022-08-22T02:36:32.210Z,101467.66
2022-08-22T02:39:01.710Z,101464.94
2022-08-22T02:41:28.153Z,101456.72
2022-08-22T02:44:01.541Z,101457.75
2022-08-22T02:46:46.943Z,101460.50
2022-08-22T02:49:19.676Z,101460.50
2022-08-22T02:51:57.542Z,101456.72
2022-08-22T02:54:46.835Z,101452.28
2022-08-22T02:57:24.739Z,101457.91
2022-08-22T03:00:31.289Z,101462.53
2022-08-22T03:03:03.788Z,101460.00
2022-08-22T03:05:30.093Z,101454.66
2022-08-22T03:08:02.759Z,101455.72
2022-08-22T03:10:35.081Z,101450.22
2022-08-22T03:13:01.515Z,101454.00
2022-08-22T03:15:30.919Z,101445.78
2022-08-22T03:18:06.887Z,101438.41
2022-08-22T03:20:36.536Z,101439.47
2022-08-22T03:23:07.328Z,101434.84
2022-08-22T03:25:38.058Z,101435.84
2022-08-22T03:28:07.408Z,101440.31
2022-08-22T03:30:43.325Z,101434.84
2022-08-22T03:33:12.820Z,101449.38
2022-08-22T03:35:50.671Z,101440.31
2022-08-22T03:38:17.025Z,101437.56
2022-08-22T03:40:43.350Z,101437.56
2022-08-22T03:43:28.812Z,101437.38
2022-08-22T03:45:57.915Z,101439.97
2022-08-22T03:48:43.136Z,101436.72
2022-08-22T03:51:18.587Z,101435.84
2022-08-22T03:53:51.197Z,101432.09
2022-08-22T03:56:20.356Z,101428.31
2022-08-22T03:59:02.910Z,101424.88
2022-08-22T04:01:55.433Z,101424.88
2022-08-22T04:04:40.490Z,101429.50
2022-08-22T04:07:28.406Z,101434.84
2022-08-22T04:10:11.274Z,101437.56
2022-08-22T04:12:43.811Z,101443.06
2022-08-22T04:15:25.407Z,101424.72
2022-08-22T04:18:02.250Z,101433.78
2022-08-22T04:20:55.152Z,101437.56
2022-08-22T04:23:34.015Z,101439.28
2022-08-22T04:26:20.963Z,101432.09
2022-08-22T04:28:53.576Z,101437.56
2022-08-22T04:31:46.409Z,101439.63
2022-08-22T04:34:29.650Z,101443.91
2022-08-22T04:37:09.899Z,101443.06
2022-08-22T04:39:48.149Z,101435.84
2022-08-22T04:42:36.696Z,101445.09
2022-08-22T04:45:16.934Z,101448.88
2022-08-22T04:47:47.210Z,101446.78
2022-08-22T04:50:43.011Z,101446.63
2022-08-22T04:53:14.926Z,101446.78
2022-08-22T04:56:07.257Z,101439.97
2022-08-22T04:58:41.575Z,101441.00
2022-08-22T05:01:17.208Z,101446.66
2022-08-22T05:03:53.676Z,101442.06
2022-08-22T05:06:21.502Z,101442.06
2022-08-22T05:08:53.632Z,101445.63
2022-08-22T05:11:22.568Z,101453.84
2022-08-22T05:13:53.491Z,101457.25
2022-08-22T05:16:32.569Z,101458.09
2022-08-22T05:19:02.683Z,101456.41
2022-08-22T05:21:32.273Z,101453.66
2022-08-22T05:24:01.447Z,101461.03
2022-08-22T05:26:28.796Z,101461.03
2022-08-22T05:28:59.619Z,101460.00
2022-08-22T05:31:32.257Z,101450.94
2022-08-22T05:34:05.925Z,101457.25
2022-08-22T05:36:35.477Z,101460.00
2022-08-22T05:39:04.938Z,101463.59
2022-08-22T05:41:35.199Z,101465.66
2022-08-22T05:44:02.466Z,101464.81
2022-08-22T05:46:34.821Z,101463.28
2022-08-22T05:49:03.158Z,101463.28
2022-08-22T05:51:35.815Z,101469.78
2022-08-22T05:54:19.715Z,101472.34
2022-08-22T05:56:50.508Z,101470.44
2022-08-22T05:59:34.454Z,101465.13
2022-08-22T06:02:03.789Z,101464.13
2022-08-22T06:04:51.888Z,101475.44
2022-08-22T06:07:22.237Z,101460.84
2022-08-22T06:09:48.566Z,101460.34
2022-08-22T06:12:22.089Z,101469.22
2022-08-22T06:14:55.019Z,101476.44
2022-08-22T06:17:26.669Z,101478.31
2022-08-22T06:19:54.330Z,101486.19
2022-08-22T06:22:23.150Z,101475.88
2022-08-22T06:24:50.812Z,101481.38
2022-08-22T06:27:19.686Z,101478.97
2022-08-22T06:29:49.226Z,101481.06
2022-08-22T06:32:16.841Z,101482.06
2022-08-22T06:35:06.606Z,101483.81
2022-08-22T06:37:36.677Z,101486.69
2022-08-22T06:40:05.257Z,101485.84
2022-08-22T06:42:32.689Z,101492.03
2022-08-22T06:45:22.068Z,101493.72
2022-08-22T06:48:00.545Z,101490.97
2022-08-22T06:50:32.285Z,101496.28
2022-08-22T06:52:58.647Z,101502.63
2022-08-22T06:55:26.496Z,101501.75
2022-08-22T06:58:03.107Z,101494.22
2022-08-22T07:00:30.649Z,101493.03
2022-08-22T07:03:06.344Z,101500.19
2022-08-22T07:05:37.895Z,101501.91
2022-08-22T07:08:06.198Z,101501.59
2022-08-22T07:10:32.587Z,101497.16
2022-08-22T07:12:58.969Z,101506.03
2022-08-22T07:15:35.335Z,101500.56
2022-08-22T07:18:10.401Z,101509.81
2022-08-22T07:20:41.821Z,101505.19
2022-08-22T07:23:23.689Z,101514.25
2022-08-22T07:25:58.336Z,101515.59
2022-08-22T07:28:50.873Z,101511.66
2022-08-22T07:31:30.950Z,101509.78
2022-08-22T07:34:08.738Z,101511.50
2022-08-22T07:36:57.920Z,101508.78
2022-08-22T07:39:37.031Z,101508.78
2022-08-22T07:42:11.198Z,101510.47
2022-08-22T07:44:47.558Z,101503.28
2022-08-22T07:47:18.103Z,101503.28
2022-08-22T07:49:54.942Z,101501.56
2022-08-22T07:52:22.114Z,101505.00
2022-08-22T07:54:57.978Z,101491.28
2022-08-22T07:57:32.561Z,101498.47
2022-08-22T07:59:59.994Z,101492.31
2022-08-22T08:02:26.760Z,101499.50
2022-08-22T08:04:55.070Z,101495.72
2022-08-22T08:07:23.586Z,101490.25
2022-08-22T08:09:52.991Z,101491.94
2022-08-22T08:12:21.931Z,101484.75
2022-08-22T08:14:52.157Z,101480.97
2022-08-22T08:17:22.641Z,101484.75
2022-08-22T08:19:50.682Z,101482.22
2022-08-22T08:22:19.802Z,101485.63
2022-08-22T08:24:47.126Z,101490.94
2022-08-22T08:27:34.152Z,101480.97
2022-08-22T08:30:19.060Z,101482.03
2022-08-22T08:32:57.530Z,101473.81
2022-08-22T08:36:02.923Z,101469.16
2022-08-22T08:38:32.742Z,101464.53
2022-08-22T08:41:29.643Z,101470.91
2022-08-22T08:43:55.988Z,101471.75
2022-08-22T08:46:41.399Z,101467.97
2022-08-22T08:49:21.006Z,101471.56
2022-08-22T08:51:53.502Z,101465.22
2022-08-22T08:54:23.731Z,101466.06
2022-08-22T08:57:11.751Z,101468.81
2022-08-22T08:59:49.318Z,101461.44
2022-08-22T09:02:23.499Z,101464.19
2022-08-22T09:05:08.876Z,101469.50
2022-08-22T09:07:36.131Z,101458.69
2022-08-22T09:10:16.529Z,101469.66
2022-08-22T09:12:56.049Z,101458.91
2022-08-22T09:15:39.461Z,101465.22
2022-08-22T09:18:12.129Z,101452.22
2022-08-22T09:20:47.564Z,101457.69
2022-08-22T09:23:24.188Z,101464.88
2022-08-22T09:25:55.813Z,101466.56
2022-08-22T09:28:39.012Z,101467.63
2022-08-22T09:31:16.619Z,101462.13
2022-08-22T09:33:54.962Z,101457.34
2022-08-22T09:36:30.003Z,101458.34
2022-08-22T09:39:03.056Z,101456.47
2022-08-22T09:41:52.925Z,101457.34
2022-08-22T09:44:24.398Z,101452.88
2022-08-22T09:46:58.075Z,101454.59
2022-08-22T09:49:34.791Z,101452.88
2022-08-22T09:52:15.432Z,101453.72
2022-08-22T09:55:08.150Z,101449.13
2022-08-22T09:57:47.844Z,101446.38
2022-08-22T10:00:16.232Z,101449.97
2022-08-22T10:02:51.612Z,101445.50
2022-08-22T10:05:43.871Z,101444.50
2022-08-22T10:08:20.034Z,101445.34
2022-08-22T10:11:06.465Z,101446.38
2022-08-22T10:13:37.238Z,101443.63
2022-08-22T10:16:13.059Z,101437.13
2022-08-22T10:18:43.970Z,101437.13
2022-08-22T10:21:39.697Z,101437.13
2022-08-22T10:24:07.265Z,101431.44
2022-08-22T10:26:39.245Z,101430.59
2022-08-22T10:29:16.268Z,101424.94
2022-08-22T10:31:58.865Z,101419.63
2022-08-22T10:34:29.048Z,101419.63
2022-08-22T10:37:07.798Z,101418.63
2022-08-22T10:39:47.448Z,101411.25
2022-08-22T10:42:28.470Z,101419.28
2022-08-22T10:44:59.548Z,101403.66
2022-08-22T10:47:33.914Z,101414.84
2022-08-22T10:50:10.821Z,101412.09
2022-08-22T10:53:29.539Z,101404.53
2022-08-22T10:56:05.458Z,101404.53
2022-08-22T10:58:34.620Z,101406.25
2022-08-22T11:01:37.001Z,101403.50
2022-08-22T11:04:02.599Z,101405.56
2022-08-22T11:06:50.408Z,101406.25
2022-08-22T11:09:35.774Z,101402.47
2022-08-22T11:12:21.291Z,101404.16
2022-08-22T11:14:50.595Z,101402.47
2022-08-22T11:17:40.661Z,101397.00
2022-08-22T11:20:31.872Z,101391.50
2022-08-22T11:23:14.184Z,101389.13
2022-08-22T11:25:41.361Z,101395.28
2022-08-22T11:28:21.084Z,101393.41
2022-08-22T11:30:57.843Z,101395.94
2022-08-22T11:33:32.451Z,101390.47
2022-08-22T11:36:26.128Z,101391.50
2022-08-22T11:39:18.655Z,101388.06
2022-08-22T11:41:53.205Z,101390.47
2022-08-22T11:44:27.300Z,101383.09
2022-08-22T11:46:57.244Z,101389.63
2022-08-22T11:49:32.923Z,101384.97
2022-08-22T11:52:09.986Z,101389.44
2022-08-22T11:54:42.079Z,101369.56
2022-08-22T11:57:13.603Z,101375.75
2022-08-22T11:59:43.357Z,101376.44
2022-08-22T12:02:14.835Z,101365.47
2022-08-22T12:04:45.772Z,101363.25
2022-08-22T12:07:32.235Z,101365.78
2022-08-22T12:10:00.963Z,101365.47
2022-08-22T12:12:36.569Z,101367.19
2022-08-22T12:15:11.945Z,101357.94
2022-08-22T12:17:55.267Z,101359.63
2022-08-22T12:20:45.332Z,101358.56
2022-08-22T12:23:48.789Z,101357.72
2022-08-22T12:26:34.824Z,101354.34
2022-08-22T12:29:15.572Z,101359.63
2022-08-22T12:31:58.369Z,101357.56
2022-08-22T12:34:34.813Z,101355.00
2022-08-22T12:37:11.923Z,101347.63
2022-08-22T12:39:46.585Z,101350.34
2022-08-22T12:42:42.963Z,101351.22
2022-08-22T12:45:12.511Z,101352.94
2022-08-22T12:47:42.242Z,101346.59
2022-08-22T12:50:28.492Z,101351.22
2022-08-22T12:53:15.926Z,101343.84
2022-08-22T12:55:59.771Z,101343.84
2022-08-22T12:58:34.579Z,101335.63
2022-08-22T13:01:05.466Z,101337.69
2022-08-22T13:03:35.349Z,101338.53
2022-08-22T13:06:24.799Z,101340.28
2022-08-22T13:08:52.184Z,101339.03
2022-08-22T13:11:23.255Z,101344.50
2022-08-22T13:13:56.622Z,101329.09
2022-08-22T13:16:24.898Z,101334.59
2022-08-22T13:18:56.861Z,101334.59
2022-08-22T13:21:28.861Z,101332.88
2022-08-22T13:24:10.357Z,101333.53
2022-08-22T13:26:45.138Z,101328.41
2022-08-22T13:29:25.800Z,101319.19
2022-08-22T13:32:01.588Z,101327.41
2022-08-22T13:34:39.598Z,101322.78
2022-08-22T13:37:07.883Z,101318.50
2022-08-22T13:39:38.690Z,101312.66
2022-08-22T13:42:07.614Z,101315.41
2022-08-22T13:44:46.482Z,101312.84
2022-08-22T13:47:18.261Z,101302.72
2022-08-22T13:49:52.954Z,101305.47
2022-08-22T13:52:38.023Z,101303.59
2022-08-22T13:55:18.923Z,101307.84
2022-08-22T13:57:54.515Z,101307.84
2022-08-22T14:00:29.938Z,101309.56
2022-08-22T14:03:05.401Z,101301.31
2022-08-22T14:05:38.241Z,101304.06
2022-08-22T14:08:12.559Z,101300.28
2022-08-22T14:10:45.359Z,101304.06
2022-08-22T14:13:11.879Z,101301.53
2022-08-22T14:15:45.749Z,101299.78
2022-08-22T14:18:30.526Z,101307.66
2022-08-22T14:21:16.661Z,101294.78
2022-08-22T14:23:43.618Z,101295.84
2022-08-22T14:26:10.102Z,101295.84
2022-08-22T14:28:39.298Z,101296.31
2022-08-22T14:31:13.299Z,101289.31
2022-08-22T14:33:46.781Z,101288.81
2022-08-22T14:36:22.644Z,101291.41
2022-08-22T14:38:56.293Z,101298.22
2022-08-22T14:41:22.636Z,101282.63
2022-08-22T14:43:58.846Z,101282.63
2022-08-22T14:46:49.424Z,101290.00
2022-08-22T14:49:18.787Z,101275.25
2022-08-22T14:51:50.787Z,101267.00
2022-08-22T14:54:21.294Z,101270.81
2022-08-22T14:56:49.163Z,101272.50
2022-08-22T14:59:24.531Z,101279.72
2022-08-22T15:01:53.654Z,101277.63
2022-08-22T15:04:23.941Z,101279.31
2022-08-22T15:06:57.847Z,101276.78
2022-08-22T15:09:32.729Z,101270.06
2022-08-22T15:12:01.776Z,101272.63
2022-08-22T15:14:35.722Z,101268.81
2022-08-22T15:17:04.680Z,101266.75
2022-08-22T15:19:35.350Z,101262.13
2022-08-22T15:22:19.114Z,101259.38
2022-08-22T15:25:02.318Z,101263.84
2022-08-22T15:27:29.783Z,101267.25
2022-08-22T15:29:58.686Z,101262.81
2022-08-22T15:32:27.401Z,101260.72
2022-08-22T15:35:04.377Z,101258.84
2022-08-22T15:37:32.782Z,101261.59
2022-08-22T15:40:12.116Z,101257.97
2022-08-22T15:42:43.993Z,101258.84
2022-08-22T15:45:39.494Z,101252.69
2022-08-22T15:48:13.349Z,101251.47
2022-08-22T15:50:54.439Z,101250.44
2022-08-22T15:53:21.032Z,101248.53
2022-08-22T15:56:05.114Z,101254.88
2022-08-22T15:58:32.303Z,101252.13
2022-08-22T16:01:05.860Z,101250.44
2022-08-22T16:04:02.102Z,101242.03
2022-08-22T16:06:43.947Z,101243.91
2022-08-22T16:09:29.563Z,101237.75
2022-08-22T16:11:57.223Z,101238.59
2022-08-22T16:14:35.767Z,101241.53
2022-08-22T16:17:02.238Z,101236.91
2022-08-22T16:19:29.756Z,101236.91
2022-08-22T16:21:56.115Z,101233.97
2022-08-22T16:24:22.475Z,101235.00
2022-08-22T16:26:49.256Z,101226.78
2022-08-22T16:29:41.502Z,101227.44
2022-08-22T16:32:11.287Z,101228.97
2022-08-22T16:34:37.629Z,101224.31
2022-08-22T16:37:17.934Z,101220.72
2022-08-22T16:39:49.832Z,101220.94
2022-08-22T16:42:16.221Z,101217.16
2022-08-22T16:44:46.773Z,101218.00
2022-08-22T16:47:21.655Z,101218.84
2022-08-22T16:49:50.732Z,101212.50
2022-08-22T16:52:23.304Z,101202.22
2022-08-22T16:54:51.171Z,101212.97
2022-08-22T16:57:20.281Z,101210.25
2022-08-22T16:59:59.104Z,101205.59
2022-08-22T17:02:33.184Z,101201.84
2022-08-22T17:05:15.442Z,101198.91
2022-08-22T17:08:03.138Z,101205.22
2022-08-22T17:10:46.504Z,101195.09
2022-08-22T17:13:12.822Z,101195.09
2022-08-22T17:15:39.183Z,101187.75
2022-08-22T17:18:14.327Z,101188.41
2022-08-22T17:20:49.447Z,101190.28
2022-08-22T17:23:41.677Z,101185.66
2022-08-22T17:26:07.990Z,101186.50
2022-08-22T17:28:54.223Z,101188.22
2022-08-22T17:31:31.569Z,101184.81
2022-08-22T17:34:16.269Z,101189.44
2022-08-22T17:36:42.629Z,101181.00
2022-08-22T17:39:20.548Z,101182.91
2022-08-22T17:41:46.947Z,101183.75
2022-08-22T17:44:22.079Z,101190.97
2022-08-22T17:46:57.114Z,101189.25
2022-08-22T17:49:41.553Z,101193.72
2022-08-22T17:52:16.325Z,101190.97
2022-08-22T17:54:49.648Z,101193.03
2022-08-22T17:57:28.143Z,101200.03
2022-08-22T17:59:54.621Z,101196.47
2022-08-22T18:02:24.730Z,101200.22
2022-08-22T18:05:03.534Z,101204.69
2022-08-22T18:07:34.898Z,101213.09
2022-08-22T18:10:19.879Z,101212.25
2022-08-22T18:13:20.603Z,101217.03
2022-08-22T18:16:13.115Z,101208.81
2022-08-22T18:18:48.618Z,101215.34
2022-08-22T18:21:37.376Z,101218.94
2022-08-22T18:24:09.543Z,101214.72
2022-08-22T18:26:45.942Z,101223.78
2022-08-22T18:29:16.905Z,101222.44
2022-08-22T18:31:53.428Z,101225.16
2022-08-22T18:34:40.873Z,101235.28
2022-08-22T18:37:15.355Z,101230.19
2022-08-22T18:39:54.970Z,101230.75
2022-08-22T18:42:36.833Z,101238.97
2022-08-22T18:45:03.487Z,101244.25
2022-08-22T18:47:32.694Z,101247.00
2022-08-22T18:50:00.970Z,101248.25
2022-08-22T18:52:27.320Z,101248.41
2022-08-22T18:55:12.599Z,101252.69
2022-08-22T18:58:00.477Z,101243.25
2022-08-22T19:00:46.247Z,101252.50
2022-08-22T19:03:25.163Z,101260.72
2022-08-22T19:06:10.576Z,101262.59
2022-08-22T19:08:51.661Z,101260.91
2022-08-22T19:11:35.153Z,101256.28
2022-08-22T19:14:06.339Z,101265.34
2022-08-22T19:16:45.433Z,101263.47
2022-08-22T19:19:17.656Z,101269.81
2022-08-22T19:22:19.646Z,101272.38
2022-08-22T19:25:01.335Z,101278.91
2022-08-22T19:27:31.324Z,101271.03
2022-08-22T19:29:59.755Z,101283.06
2022-08-22T19:32:44.427Z,101282.00
2022-08-22T19:35:19.651Z,101274.81
2022-08-22T19:37:54.760Z,101275.19
2022-08-22T19:40:40.542Z,101269.72
2022-08-22T19:43:22.320Z,101275.19
2022-08-22T19:45:49.420Z,101273.47
2022-08-22T19:48:15.854Z,101278.94
2022-08-22T19:50:43.009Z,101278.94
2022-08-22T19:53:09.758Z,101276.88
2022-08-22T19:55:36.667Z,101276.69
2022-08-22T19:58:12.950Z,101284.06
2022-08-22T20:00:58.125Z,101276.88
2022-08-22T20:03:43.628Z,101276.88
2022-08-22T20:06:33.650Z,101269.72
2022-08-22T20:09:04.049Z,101265.91
2022-08-22T20:11:39.370Z,101261.28
2022-08-22T20:14:12.071Z,101258.38
2022-08-22T20:16:58.109Z,101262.13
2022-08-22T20:19:36.235Z,101266.59
2022-08-22T20:22:03.821Z,101263.84
2022-08-22T20:24:41.070Z,101264.69
2022-08-22T20:27:15.131Z,101258.38
2022-08-22T20:29:45.063Z,101261.13
2022-08-22T20:32:14.648Z,101256.66
2022-08-22T20:34:42.523Z,101259.22
2022-08-22T20:37:29.479Z,101260.91
2022-08-22T20:40:09.880Z,101253.72
2022-08-22T20:43:00.000Z,101260.72
2022-08-22T20:45:28.002Z,101255.22
2022-08-22T20:47:57.308Z,101261.75
2022-08-22T20:50:24.463Z,101253.72
2022-08-22T20:53:07.599Z,101261.75
2022-08-22T20:55:35.994Z,101252.50
2022-08-22T20:58:04.807Z,101261.59
2022-08-22T21:00:39.406Z,101261.75
2022-08-22T21:03:15.146Z,101259.03
2022-08-22T21:05:43.214Z,101251.84
2022-08-22T21:08:15.678Z,101253.25
2022-08-22T21:11:00.803Z,101243.97
2022-08-22T21:13:28.654Z,101255.69
2022-08-22T21:16:02.579Z,101253.63
2022-08-22T21:18:32.130Z,101249.63
2022-08-22T21:21:08.118Z,101251.03
2022-08-22T21:23:44.820Z,101258.25
2022-08-22T21:26:22.268Z,101260.50
2022-08-22T21:28:54.883Z,101257.09
2022-08-22T21:31:23.440Z,101256.03
2022-08-22T21:33:51.575Z,101251.59
2022-08-22T21:36:20.107Z,101244.06
2022-08-22T21:38:48.759Z,101249.56
2022-08-22T21:41:23.116Z,101250.56
2022-08-22T21:43:53.946Z,101252.47
2022-08-22T21:46:25.066Z,101249.72
2022-08-22T21:48:59.649Z,101248.38
2022-08-22T21:51:31.980Z,101243.06
2022-08-22T21:54:19.095Z,101246.13
2022-08-22T21:56:45.662Z,101246.81
2022-08-22T21:59:19.688Z,101245.44
2022-08-22T22:01:51.517Z,101241.38
2022-08-22T22:04:17.987Z,101242.41
2022-08-22T22:06:44.546Z,101247.91
2022-08-22T22:09:15.061Z,101247.22
2022-08-22T22:11:41.781Z,101251.66
2022-08-22T22:14:08.623Z,101246.56
2022-08-22T22:16:35.137Z,101244.47
2022-08-22T22:19:01.500Z,101244.69
2022-08-22T22:21:28.150Z,101252.72
2022-08-22T22:23:54.639Z,101241.94
2022-08-22T22:26:25.462Z,101251.00
2022-08-22T22:28:51.974Z,101248.25
2022-08-22T22:31:18.439Z,101252.06
2022-08-22T22:33:45.351Z,101249.47
2022-08-22T22:36:37.900Z,101253.22
2022-08-22T22:39:05.294Z,101252.38
2022-08-22T22:41:31.719Z,101251.72
2022-08-22T22:43:58.188Z,101246.03
2022-08-22T22:46:26.735Z,101252.38
2022-08-22T22:48:53.812Z,101247.75
2022-08-22T22:51:20.197Z,101252.38
2022-08-22T22:53:46.588Z,101246.91
2022-08-22T22:56:16.639Z,101239.69
2022-08-22T22:58:43.566Z,101254.13
2022-08-22T23:01:17.301Z,101260.44
2022-08-22T23:03:44.870Z,101245.69
2022-08-22T23:06:15.975Z,101245.69
2022-08-22T23:08:42.542Z,101244.00
2022-08-22T23:11:15.830Z,101254.97
2022-08-22T23:13:43.055Z,101244.16
2022-08-22T23:16:11.976Z,101239.69
2022-08-22T23:18:38.361Z,101251.50
2022-08-22T23:21:10.640Z,101255.13
2022-08-22T23:23:37.035Z,101244.16
2022-08-22T23:26:03.436Z,101249.47
2022-08-22T23:28:29.784Z,101249.66
2022-08-22T23:30:56.130Z,101247.91
2022-08-22T23:33:22.486Z,101243.47
2022-08-22T23:35:48.925Z,101254.44
2022-08-22T23:38:15.254Z,101249.81
2022-08-22T23:40:46.495Z,101250.66
2022-08-22T23:43:12.881Z,101250.66
2022-08-22T23:45:39.222Z,101248.13
2022-08-22T23:48:05.630Z,101241.41
2022-08-22T23:50:33.811Z,101237.66
2022-08-22T23:53:00.148Z,101246.03
2022-08-22T23:55:26.540Z,101236.09
2022-08-22T23:57:52.876Z,101234.56
